sensor_id;sensor_type;location;lat;lon;timestamp;temperature;humidity
35565;DHT22;21668;44.784;10.336;2022-07-10T00:00:55;21.80;89.60
35565;DHT22;21668;44.784;10.336;2022-07-10T00:03:59;21.80;90.00
35565;DHT22;21668;44.784;10.336;2022-07-10T00:07:02;21.80;89.90
35565;DHT22;21668;44.784;10.336;2022-07-10T00:10:07;21.80;89.80
35565;DHT22;21668;44.784;10.336;2022-07-10T00:13:11;21.80;89.80
35565;DHT22;21668;44.784;10.336;2022-07-10T00:16:14;21.80;90.00
35565;DHT22;21668;44.784;10.336;2022-07-10T00:19:18;21.70;90.10
35565;DHT22;21668;44.784;10.336;2022-07-10T00:22:22;21.50;90.20
35565;DHT22;21668;44.784;10.336;2022-07-10T00:25:26;21.70;90.40
35565;DHT22;21668;44.784;10.336;2022-07-10T00:28:30;21.70;90.40
35565;DHT22;21668;44.784;10.336;2022-07-10T00:31:33;21.60;90.90
35565;DHT22;21668;44.784;10.336;2022-07-10T00:34:37;21.70;90.70
35565;DHT22;21668;44.784;10.336;2022-07-10T00:37:40;21.70;90.60
35565;DHT22;21668;44.784;10.336;2022-07-10T00:40:44;21.60;90.80
35565;DHT22;21668;44.784;10.336;2022-07-10T00:43:54;21.50;91.10
35565;DHT22;21668;44.784;10.336;2022-07-10T00:46:58;21.50;91.10
35565;DHT22;21668;44.784;10.336;2022-07-10T00:50:03;23.20;91.60
35565;DHT22;21668;44.784;10.336;2022-07-10T00:53:07;21.50;91.20
35565;DHT22;21668;44.784;10.336;2022-07-10T00:56:10;21.50;91.20
35565;DHT22;21668;44.784;10.336;2022-07-10T00:59:15;21.40;91.30
35565;DHT22;21668;44.784;10.336;2022-07-10T01:02:18;21.40;91.40
35565;DHT22;21668;44.784;10.336;2022-07-10T01:05:22;21.30;91.50
35565;DHT22;21668;44.784;10.336;2022-07-10T01:08:26;21.20;91.60
35565;DHT22;21668;44.784;10.336;2022-07-10T01:11:31;21.10;91.90
35565;DHT22;21668;44.784;10.336;2022-07-10T01:14:37;21.00;92.10
35565;DHT22;21668;44.784;10.336;2022-07-10T01:17:42;20.90;92.10
35565;DHT22;21668;44.784;10.336;2022-07-10T01:20:50;20.90;92.10
35565;DHT22;21668;44.784;10.336;2022-07-10T01:23:54;20.90;92.20
35565;DHT22;21668;44.784;10.336;2022-07-10T01:26:58;20.90;92.10
35565;DHT22;21668;44.784;10.336;2022-07-10T01:30:02;20.90;92.10
35565;DHT22;21668;44.784;10.336;2022-07-10T01:33:06;20.90;92.10
35565;DHT22;21668;44.784;10.336;2022-07-10T01:36:10;20.80;92.30
35565;DHT22;21668;44.784;10.336;2022-07-10T01:39:13;20.80;92.30
35565;DHT22;21668;44.784;10.336;2022-07-10T01:42:17;20.80;92.30
35565;DHT22;21668;44.784;10.336;2022-07-10T01:45:21;20.80;92.30
35565;DHT22;21668;44.784;10.336;2022-07-10T01:48:25;20.70;92.30
35565;DHT22;21668;44.784;10.336;2022-07-10T01:51:29;20.70;92.40
35565;DHT22;21668;44.784;10.336;2022-07-10T01:54:32;20.60;92.60
35565;DHT22;21668;44.784;10.336;2022-07-10T01:57:36;20.60;92.70
35565;DHT22;21668;44.784;10.336;2022-07-10T02:00:40;20.50;92.80
35565;DHT22;21668;44.784;10.336;2022-07-10T02:03:44;20.50;93.00
35565;DHT22;21668;44.784;10.336;2022-07-10T02:07:16;20.50;93.00
35565;DHT22;21668;44.784;10.336;2022-07-10T02:10:20;20.50;93.30
35565;DHT22;21668;44.784;10.336;2022-07-10T02:13:24;20.50;93.20
35565;DHT22;21668;44.784;10.336;2022-07-10T02:16:30;20.50;93.40
35565;DHT22;21668;44.784;10.336;2022-07-10T02:19:34;20.50;93.40
35565;DHT22;21668;44.784;10.336;2022-07-10T02:22:38;20.50;93.60
35565;DHT22;21668;44.784;10.336;2022-07-10T02:25:45;20.40;93.60
35565;DHT22;21668;44.784;10.336;2022-07-10T02:28:48;20.40;93.50
35565;DHT22;21668;44.784;10.336;2022-07-10T02:31:52;20.30;93.70
35565;DHT22;21668;44.784;10.336;2022-07-10T02:34:56;20.30;93.90
35565;DHT22;21668;44.784;10.336;2022-07-10T02:37:59;20.30;93.80
35565;DHT22;21668;44.784;10.336;2022-07-10T02:41:02;20.30;93.80
35565;DHT22;21668;44.784;10.336;2022-07-10T02:44:06;20.20;93.90
35565;DHT22;21668;44.784;10.336;2022-07-10T02:47:10;20.20;93.80
35565;DHT22;21668;44.784;10.336;2022-07-10T02:50:13;20.20;94.00
35565;DHT22;21668;44.784;10.336;2022-07-10T02:53:17;20.20;93.90
35565;DHT22;21668;44.784;10.336;2022-07-10T02:56:20;20.10;93.90
35565;DHT22;21668;44.784;10.336;2022-07-10T02:59:23;20.10;94.30
35565;DHT22;21668;44.784;10.336;2022-07-10T03:02:27;20.10;94.20
35565;DHT22;21668;44.784;10.336;2022-07-10T03:05:31;20.00;94.40
35565;DHT22;21668;44.784;10.336;2022-07-10T03:08:34;20.00;94.80
35565;DHT22;21668;44.784;10.336;2022-07-10T03:11:37;19.80;94.90
35565;DHT22;21668;44.784;10.336;2022-07-10T03:14:41;19.80;94.90
35565;DHT22;21668;44.784;10.336;2022-07-10T03:17:44;19.80;95.00
35565;DHT22;21668;44.784;10.336;2022-07-10T03:20:48;19.80;95.20
35565;DHT22;21668;44.784;10.336;2022-07-10T03:23:52;19.80;95.10
35565;DHT22;21668;44.784;10.336;2022-07-10T03:26:55;19.70;95.10
35565;DHT22;21668;44.784;10.336;2022-07-10T03:29:59;19.60;95.20
35565;DHT22;21668;44.784;10.336;2022-07-10T03:33:03;19.60;95.30
35565;DHT22;21668;44.784;10.336;2022-07-10T03:36:07;19.60;95.40
35565;DHT22;21668;44.784;10.336;2022-07-10T03:39:10;19.60;95.40
35565;DHT22;21668;44.784;10.336;2022-07-10T03:42:14;19.70;95.10
35565;DHT22;21668;44.784;10.336;2022-07-10T03:45:18;19.70;95.10
35565;DHT22;21668;44.784;10.336;2022-07-10T03:48:21;19.70;94.90
35565;DHT22;21668;44.784;10.336;2022-07-10T03:51:25;19.70;94.80
35565;DHT22;21668;44.784;10.336;2022-07-10T03:54:28;19.70;94.90
35565;DHT22;21668;44.784;10.336;2022-07-10T03:57:32;19.70;95.10
35565;DHT22;21668;44.784;10.336;2022-07-10T04:00:55;19.70;95.10
35565;DHT22;21668;44.784;10.336;2022-07-10T04:03:58;19.70;95.30
35565;DHT22;21668;44.784;10.336;2022-07-10T04:07:02;19.70;95.30
35565;DHT22;21668;44.784;10.336;2022-07-10T04:10:07;19.70;95.30
35565;DHT22;21668;44.784;10.336;2022-07-10T04:13:12;19.60;95.60
35565;DHT22;21668;44.784;10.336;2022-07-10T04:16:16;19.60;95.80
35565;DHT22;21668;44.784;10.336;2022-07-10T04:19:19;19.60;95.70
35565;DHT22;21668;44.784;10.336;2022-07-10T04:22:25;19.70;95.70
35565;DHT22;21668;44.784;10.336;2022-07-10T04:25:29;19.70;95.80
35565;DHT22;21668;44.784;10.336;2022-07-10T04:28:32;19.80;95.80
35565;DHT22;21668;44.784;10.336;2022-07-10T04:31:36;19.70;95.90
35565;DHT22;21668;44.784;10.336;2022-07-10T04:34:39;19.80;95.90
35565;DHT22;21668;44.784;10.336;2022-07-10T04:37:43;19.90;96.00
35565;DHT22;21668;44.784;10.336;2022-07-10T04:40:46;19.90;96.00
35565;DHT22;21668;44.784;10.336;2022-07-10T04:43:50;20.00;96.00
35565;DHT22;21668;44.784;10.336;2022-07-10T04:46:53;20.10;96.10
35565;DHT22;21668;44.784;10.336;2022-07-10T04:49:57;20.20;95.90
35565;DHT22;21668;44.784;10.336;2022-07-10T04:53:00;20.30;95.90
35565;DHT22;21668;44.784;10.336;2022-07-10T04:56:05;20.40;95.70
35565;DHT22;21668;44.784;10.336;2022-07-10T04:59:08;20.40;95.70
35565;DHT22;21668;44.784;10.336;2022-07-10T05:02:12;20.40;95.70
35565;DHT22;21668;44.784;10.336;2022-07-10T05:05:16;20.50;95.80
35565;DHT22;21668;44.784;10.336;2022-07-10T05:08:19;20.50;95.60
35565;DHT22;21668;44.784;10.336;2022-07-10T05:11:23;20.60;95.60
35565;DHT22;21668;44.784;10.336;2022-07-10T05:14:27;20.70;94.70
35565;DHT22;21668;44.784;10.336;2022-07-10T05:17:31;20.80;94.80
35565;DHT22;21668;44.784;10.336;2022-07-10T05:20:35;20.90;94.80
35565;DHT22;21668;44.784;10.336;2022-07-10T05:23:41;21.00;94.80
35565;DHT22;21668;44.784;10.336;2022-07-10T05:26:45;21.00;94.60
35565;DHT22;21668;44.784;10.336;2022-07-10T05:29:48;21.10;94.40
35565;DHT22;21668;44.784;10.336;2022-07-10T07:41:33;27.00;81.50
35565;DHT22;21668;44.784;10.336;2022-07-10T07:44:37;29.40;77.60
35565;DHT22;21668;44.784;10.336;2022-07-10T07:47:48;31.00;74.00
35565;DHT22;21668;44.784;10.336;2022-07-10T07:54:45;32.10;71.30
35565;DHT22;21668;44.784;10.336;2022-07-10T08:01:47;33.30;69.70
35565;DHT22;21668;44.784;10.336;2022-07-10T08:05:02;33.90;69.10
35565;DHT22;21668;44.784;10.336;2022-07-10T08:08:06;33.70;69.20
35565;DHT22;21668;44.784;10.336;2022-07-10T08:11:15;33.90;69.40
35565;DHT22;21668;44.784;10.336;2022-07-10T08:14:21;34.40;68.60
35565;DHT22;21668;44.784;10.336;2022-07-10T08:21:08;33.20;69.40
35565;DHT22;21668;44.784;10.336;2022-07-10T08:24:15;32.70;70.70
35565;DHT22;21668;44.784;10.336;2022-07-10T08:28:36;32.50;70.90
35565;DHT22;21668;44.784;10.336;2022-07-10T08:31:39;31.90;71.30
35565;DHT22;21668;44.784;10.336;2022-07-10T08:34:44;31.30;72.30
35565;DHT22;21668;44.784;10.336;2022-07-10T08:37:47;30.30;73.40
35565;DHT22;21668;44.784;10.336;2022-07-10T08:40:51;29.80;75.20
35565;DHT22;21668;44.784;10.336;2022-07-10T08:43:59;29.40;75.80
35565;DHT22;21668;44.784;10.336;2022-07-10T08:47:04;29.10;76.90
35565;DHT22;21668;44.784;10.336;2022-07-10T08:50:16;28.80;76.90
35565;DHT22;21668;44.784;10.336;2022-07-10T08:53:24;28.70;77.10
35565;DHT22;21668;44.784;10.336;2022-07-10T08:56:33;28.60;77.60
35565;DHT22;21668;44.784;10.336;2022-07-10T08:59:37;28.50;77.50
35565;DHT22;21668;44.784;10.336;2022-07-10T09:02:41;28.70;77.40
35565;DHT22;21668;44.784;10.336;2022-07-10T09:05:46;28.60;77.60
35565;DHT22;21668;44.784;10.336;2022-07-10T09:08:58;27.90;77.10
35565;DHT22;21668;44.784;10.336;2022-07-10T09:12:02;28.50;76.90
35565;DHT22;21668;44.784;10.336;2022-07-10T09:15:14;28.50;76.80
35565;DHT22;21668;44.784;10.336;2022-07-10T09:18:37;28.70;76.60
35565;DHT22;21668;44.784;10.336;2022-07-10T09:21:45;28.80;76.30
35565;DHT22;21668;44.784;10.336;2022-07-10T09:24:50;28.90;76.00
35565;DHT22;21668;44.784;10.336;2022-07-10T09:28:01;29.10;76.30
35565;DHT22;21668;44.784;10.336;2022-07-10T09:54:42;29.10;72.10
35565;DHT22;21668;44.784;10.336;2022-07-10T09:58:56;29.10;72.40
35565;DHT22;21668;44.784;10.336;2022-07-10T10:19:35;29.60;70.00
35565;DHT22;21668;44.784;10.336;2022-07-10T10:23:02;29.90;70.60
35565;DHT22;21668;44.784;10.336;2022-07-10T10:26:09;29.90;71.20
35565;DHT22;21668;44.784;10.336;2022-07-10T10:29:14;30.00;70.40
35565;DHT22;21668;44.784;10.336;2022-07-10T10:37:03;30.10;68.60
35565;DHT22;21668;44.784;10.336;2022-07-10T10:43:28;30.10;67.80
35565;DHT22;21668;44.784;10.336;2022-07-10T10:47:00;30.30;67.10
35565;DHT22;21668;44.784;10.336;2022-07-10T10:55:02;30.40;67.00
35565;DHT22;21668;44.784;10.336;2022-07-10T10:58:46;30.40;67.80
35565;DHT22;21668;44.784;10.336;2022-07-10T11:09:36;30.60;67.20
35565;DHT22;21668;44.784;10.336;2022-07-10T11:16:45;30.70;67.00
35565;DHT22;21668;44.784;10.336;2022-07-10T11:19:58;30.80;67.50
35565;DHT22;21668;44.784;10.336;2022-07-10T11:44:37;31.10;65.10
35565;DHT22;21668;44.784;10.336;2022-07-10T11:51:29;31.20;65.40
35565;DHT22;21668;44.784;10.336;2022-07-10T11:54:50;31.30;64.70
35565;DHT22;21668;44.784;10.336;2022-07-10T11:58:17;31.30;65.00
35565;DHT22;21668;44.784;10.336;2022-07-10T12:01:23;31.20;64.70
35565;DHT22;21668;44.784;10.336;2022-07-10T12:05:36;31.30;65.00
35565;DHT22;21668;44.784;10.336;2022-07-10T12:08:44;31.20;66.50
35565;DHT22;21668;44.784;10.336;2022-07-10T12:15:05;31.60;65.80
35565;DHT22;21668;44.784;10.336;2022-07-10T12:18:36;31.70;65.20
35565;DHT22;21668;44.784;10.336;2022-07-10T12:21:43;31.80;64.80
35565;DHT22;21668;44.784;10.336;2022-07-10T12:24:58;31.80;65.00
35565;DHT22;21668;44.784;10.336;2022-07-10T12:28:03;31.70;64.00
35565;DHT22;21668;44.784;10.336;2022-07-10T12:31:08;31.60;64.40
35565;DHT22;21668;44.784;10.336;2022-07-10T12:34:11;31.60;64.80
35565;DHT22;21668;44.784;10.336;2022-07-10T12:37:15;31.60;64.40
35565;DHT22;21668;44.784;10.336;2022-07-10T12:40:29;31.50;64.20
35565;DHT22;21668;44.784;10.336;2022-07-10T12:43:34;31.40;64.40
35565;DHT22;21668;44.784;10.336;2022-07-10T12:46:38;31.60;65.50
35565;DHT22;21668;44.784;10.336;2022-07-10T12:53:07;31.80;63.10
35565;DHT22;21668;44.784;10.336;2022-07-10T12:56:11;31.80;61.90
35565;DHT22;21668;44.784;10.336;2022-07-10T12:59:29;31.80;63.40
35565;DHT22;21668;44.784;10.336;2022-07-10T13:02:46;31.80;62.80
35565;DHT22;21668;44.784;10.336;2022-07-10T13:05:54;31.80;63.10
35565;DHT22;21668;44.784;10.336;2022-07-10T13:09:00;31.90;64.10
35565;DHT22;21668;44.784;10.336;2022-07-10T13:12:04;31.90;63.00
35565;DHT22;21668;44.784;10.336;2022-07-10T13:15:09;32.00;62.60
35565;DHT22;21668;44.784;10.336;2022-07-10T13:18:13;32.10;61.30
35565;DHT22;21668;44.784;10.336;2022-07-10T13:21:18;32.10;61.00
35565;DHT22;21668;44.784;10.336;2022-07-10T13:24:22;32.00;61.50
35565;DHT22;21668;44.784;10.336;2022-07-10T13:27:26;32.10;60.50
35565;DHT22;21668;44.784;10.336;2022-07-10T13:30:30;32.00;61.80
35565;DHT22;21668;44.784;10.336;2022-07-10T13:33:34;32.10;61.90
35565;DHT22;21668;44.784;10.336;2022-07-10T13:36:38;32.30;62.00
35565;DHT22;21668;44.784;10.336;2022-07-10T13:39:42;32.30;62.60
35565;DHT22;21668;44.784;10.336;2022-07-10T13:42:45;32.30;62.40
35565;DHT22;21668;44.784;10.336;2022-07-10T13:45:49;32.20;62.90
35565;DHT22;21668;44.784;10.336;2022-07-10T13:48:53;32.20;63.00
35565;DHT22;21668;44.784;10.336;2022-07-10T13:51:56;32.20;62.80
35565;DHT22;21668;44.784;10.336;2022-07-10T13:55:01;32.30;62.60
35565;DHT22;21668;44.784;10.336;2022-07-10T13:58:08;32.50;61.20
35565;DHT22;21668;44.784;10.336;2022-07-10T14:01:12;32.40;61.80
35565;DHT22;21668;44.784;10.336;2022-07-10T14:04:15;32.30;61.40
35565;DHT22;21668;44.784;10.336;2022-07-10T14:07:19;32.30;61.60
35565;DHT22;21668;44.784;10.336;2022-07-10T14:10:23;32.30;61.50
35565;DHT22;21668;44.784;10.336;2022-07-10T14:13:26;32.30;61.70
35565;DHT22;21668;44.784;10.336;2022-07-10T14:16:31;32.40;61.90
35565;DHT22;21668;44.784;10.336;2022-07-10T14:19:35;32.50;61.90
35565;DHT22;21668;44.784;10.336;2022-07-10T14:22:39;32.60;61.30
35565;DHT22;21668;44.784;10.336;2022-07-10T14:25:42;32.50;60.80
35565;DHT22;21668;44.784;10.336;2022-07-10T14:28:45;32.60;62.30
35565;DHT22;21668;44.784;10.336;2022-07-10T14:31:50;32.60;61.70
35565;DHT22;21668;44.784;10.336;2022-07-10T14:35:24;32.50;61.70
35565;DHT22;21668;44.784;10.336;2022-07-10T14:38:28;32.50;62.20
35565;DHT22;21668;44.784;10.336;2022-07-10T14:41:32;32.60;62.30
35565;DHT22;21668;44.784;10.336;2022-07-10T14:44:36;32.70;62.70
35565;DHT22;21668;44.784;10.336;2022-07-10T14:47:40;32.80;62.80
35565;DHT22;21668;44.784;10.336;2022-07-10T14:50:44;32.90;62.80
35565;DHT22;21668;44.784;10.336;2022-07-10T14:53:48;32.80;61.90
35565;DHT22;21668;44.784;10.336;2022-07-10T14:56:52;32.70;63.00
35565;DHT22;21668;44.784;10.336;2022-07-10T14:59:56;32.70;62.10
35565;DHT22;21668;44.784;10.336;2022-07-10T15:03:00;32.70;62.70
35565;DHT22;21668;44.784;10.336;2022-07-10T15:06:04;32.60;62.30
35565;DHT22;21668;44.784;10.336;2022-07-10T15:09:08;32.70;62.60
35565;DHT22;21668;44.784;10.336;2022-07-10T15:12:12;32.80;62.90
35565;DHT22;21668;44.784;10.336;2022-07-10T15:15:16;32.70;63.10
35565;DHT22;21668;44.784;10.336;2022-07-10T15:18:20;32.60;62.30
35565;DHT22;21668;44.784;10.336;2022-07-10T15:21:24;32.60;62.90
35565;DHT22;21668;44.784;10.336;2022-07-10T15:24:28;32.70;61.90
35565;DHT22;21668;44.784;10.336;2022-07-10T15:27:31;32.70;62.10
35565;DHT22;21668;44.784;10.336;2022-07-10T15:30:35;32.60;61.70
35565;DHT22;21668;44.784;10.336;2022-07-10T15:33:41;32.60;61.70
35565;DHT22;21668;44.784;10.336;2022-07-10T15:36:48;32.60;62.00
35565;DHT22;21668;44.784;10.336;2022-07-10T15:39:52;32.60;62.80
35565;DHT22;21668;44.784;10.336;2022-07-10T15:42:56;32.70;61.50
35565;DHT22;21668;44.784;10.336;2022-07-10T15:46:00;32.70;61.30
35565;DHT22;21668;44.784;10.336;2022-07-10T15:49:04;32.70;61.30
35565;DHT22;21668;44.784;10.336;2022-07-10T15:52:08;32.60;61.70
35565;DHT22;21668;44.784;10.336;2022-07-10T15:55:12;32.70;61.50
35565;DHT22;21668;44.784;10.336;2022-07-10T15:58:16;32.70;61.10
35565;DHT22;21668;44.784;10.336;2022-07-10T16:01:20;32.60;60.80
35565;DHT22;21668;44.784;10.336;2022-07-10T16:04:24;32.50;61.20
35565;DHT22;21668;44.784;10.336;2022-07-10T16:07:27;32.50;61.60
35565;DHT22;21668;44.784;10.336;2022-07-10T16:10:31;32.50;61.10
35565;DHT22;21668;44.784;10.336;2022-07-10T16:13:36;32.60;60.80
35565;DHT22;21668;44.784;10.336;2022-07-10T16:16:39;32.50;60.70
35565;DHT22;21668;44.784;10.336;2022-07-10T16:19:43;32.50;60.20
35565;DHT22;21668;44.784;10.336;2022-07-10T16:22:49;32.40;60.50
35565;DHT22;21668;44.784;10.336;2022-07-10T16:25:53;32.40;60.20
35565;DHT22;21668;44.784;10.336;2022-07-10T16:29:08;32.30;60.10
35565;DHT22;21668;44.784;10.336;2022-07-10T16:32:12;32.30;60.00
35565;DHT22;21668;44.784;10.336;2022-07-10T16:35:15;32.40;59.90
35565;DHT22;21668;44.784;10.336;2022-07-10T16:38:19;32.40;59.80
35565;DHT22;21668;44.784;10.336;2022-07-10T16:41:22;32.50;59.60
35565;DHT22;21668;44.784;10.336;2022-07-10T16:44:25;32.50;59.40
35565;DHT22;21668;44.784;10.336;2022-07-10T16:47:29;32.50;59.50
35565;DHT22;21668;44.784;10.336;2022-07-10T16:50:34;32.50;59.10
35565;DHT22;21668;44.784;10.336;2022-07-10T16:53:38;32.50;59.10
35565;DHT22;21668;44.784;10.336;2022-07-10T16:56:42;32.50;60.00
35565;DHT22;21668;44.784;10.336;2022-07-10T16:59:46;32.50;60.10
35565;DHT22;21668;44.784;10.336;2022-07-10T17:02:50;32.60;60.30
35565;DHT22;21668;44.784;10.336;2022-07-10T17:05:54;32.70;60.20
35565;DHT22;21668;44.784;10.336;2022-07-10T17:08:57;33.10;59.90
35565;DHT22;21668;44.784;10.336;2022-07-10T17:12:02;33.80;59.90
35565;DHT22;21668;44.784;10.336;2022-07-10T17:15:06;35.10;58.70
35565;DHT22;21668;44.784;10.336;2022-07-10T17:18:10;36.10;57.80
35565;DHT22;21668;44.784;10.336;2022-07-10T17:21:13;37.30;56.70
35565;DHT22;21668;44.784;10.336;2022-07-10T17:24:21;38.00;55.60
35565;DHT22;21668;44.784;10.336;2022-07-10T17:27:25;38.30;55.30
35565;DHT22;21668;44.784;10.336;2022-07-10T17:30:29;38.60;54.70
35565;DHT22;21668;44.784;10.336;2022-07-10T17:33:54;39.00;54.40
35565;DHT22;21668;44.784;10.336;2022-07-10T17:37:13;39.30;54.20
35565;DHT22;21668;44.784;10.336;2022-07-10T17:41:30;38.80;54.20
35565;DHT22;21668;44.784;10.336;2022-07-10T17:45:37;38.40;54.60
35565;DHT22;21668;44.784;10.336;2022-07-10T17:53:29;34.80;56.80
35565;DHT22;21668;44.784;10.336;2022-07-10T17:56:34;33.70;57.70
35565;DHT22;21668;44.784;10.336;2022-07-10T18:05:30;32.30;58.10
35565;DHT22;21668;44.784;10.336;2022-07-10T18:09:07;31.60;59.00
35565;DHT22;21668;44.784;10.336;2022-07-10T18:21:01;30.70;61.30
35565;DHT22;21668;44.784;10.336;2022-07-10T18:25:18;30.60;62.00
35565;DHT22;21668;44.784;10.336;2022-07-10T18:32:22;30.20;63.30
35565;DHT22;21668;44.784;10.336;2022-07-10T18:49:03;29.70;64.50
35565;DHT22;21668;44.784;10.336;2022-07-10T18:56:46;29.40;65.00
35565;DHT22;21668;44.784;10.336;2022-07-10T19:00:19;29.20;65.60
35565;DHT22;21668;44.784;10.336;2022-07-10T19:03:23;29.10;66.10
35565;DHT22;21668;44.784;10.336;2022-07-10T19:06:30;28.90;66.20
35565;DHT22;21668;44.784;10.336;2022-07-10T19:13:25;28.70;68.10
35565;DHT22;21668;44.784;10.336;2022-07-10T19:16:32;28.60;68.10
35565;DHT22;21668;44.784;10.336;2022-07-10T19:19:51;28.40;68.00
35565;DHT22;21668;44.784;10.336;2022-07-10T19:23:01;28.30;68.50
35565;DHT22;21668;44.784;10.336;2022-07-10T19:26:05;28.20;69.10
35565;DHT22;21668;44.784;10.336;2022-07-10T19:29:09;28.20;70.10
35565;DHT22;21668;44.784;10.336;2022-07-10T19:32:16;28.10;70.50
35565;DHT22;21668;44.784;10.336;2022-07-10T19:35:23;28.00;70.00
35565;DHT22;21668;44.784;10.336;2022-07-10T19:38:30;27.90;70.00
35565;DHT22;21668;44.784;10.336;2022-07-10T19:41:55;27.80;70.20
35565;DHT22;21668;44.784;10.336;2022-07-10T19:45:00;27.80;70.70
35565;DHT22;21668;44.784;10.336;2022-07-10T19:48:25;27.80;71.40
35565;DHT22;21668;44.784;10.336;2022-07-10T19:51:29;27.70;71.10
35565;DHT22;21668;44.784;10.336;2022-07-10T19:54:33;27.60;71.80
35565;DHT22;21668;44.784;10.336;2022-07-10T19:57:37;27.50;72.20
35565;DHT22;21668;44.784;10.336;2022-07-10T20:00:42;27.40;72.60
35565;DHT22;21668;44.784;10.336;2022-07-10T20:03:46;27.40;73.00
35565;DHT22;21668;44.784;10.336;2022-07-10T20:06:49;27.30;72.90
35565;DHT22;21668;44.784;10.336;2022-07-10T20:09:53;27.20;72.90
35565;DHT22;21668;44.784;10.336;2022-07-10T20:12:57;27.10;73.20
35565;DHT22;21668;44.784;10.336;2022-07-10T20:16:01;27.10;73.40
35565;DHT22;21668;44.784;10.336;2022-07-10T20:19:05;27.00;73.70
35565;DHT22;21668;44.784;10.336;2022-07-10T20:22:08;26.90;73.70
35565;DHT22;21668;44.784;10.336;2022-07-10T20:25:11;26.80;73.80
35565;DHT22;21668;44.784;10.336;2022-07-10T20:28:16;26.80;73.90
35565;DHT22;21668;44.784;10.336;2022-07-10T20:31:19;26.70;73.80
35565;DHT22;21668;44.784;10.336;2022-07-10T20:34:22;26.60;74.00
35565;DHT22;21668;44.784;10.336;2022-07-10T20:37:26;26.60;74.30
35565;DHT22;21668;44.784;10.336;2022-07-10T20:40:45;26.50;74.40
35565;DHT22;21668;44.784;10.336;2022-07-10T20:43:49;26.50;74.50
35565;DHT22;21668;44.784;10.336;2022-07-10T20:46:52;26.40;75.20
35565;DHT22;21668;44.784;10.336;2022-07-10T20:49:56;26.30;75.40
35565;DHT22;21668;44.784;10.336;2022-07-10T20:52:59;26.20;75.60
35565;DHT22;21668;44.784;10.336;2022-07-10T20:56:02;26.30;76.00
35565;DHT22;21668;44.784;10.336;2022-07-10T20:59:06;26.10;76.30
35565;DHT22;21668;44.784;10.336;2022-07-10T21:02:10;26.00;76.70
35565;DHT22;21668;44.784;10.336;2022-07-10T21:05:13;25.90;76.90
35565;DHT22;21668;44.784;10.336;2022-07-10T21:08:18;25.90;77.30
35565;DHT22;21668;44.784;10.336;2022-07-10T21:11:22;25.80;77.20
35565;DHT22;21668;44.784;10.336;2022-07-10T21:14:25;25.80;77.20
35565;DHT22;21668;44.784;10.336;2022-07-10T21:17:30;25.70;77.50
35565;DHT22;21668;44.784;10.336;2022-07-10T21:20:34;25.70;77.80
35565;DHT22;21668;44.784;10.336;2022-07-10T21:23:38;25.60;77.80
35565;DHT22;21668;44.784;10.336;2022-07-10T21:26:41;25.50;78.10
35565;DHT22;21668;44.784;10.336;2022-07-10T21:29:45;25.40;78.40
35565;DHT22;21668;44.784;10.336;2022-07-10T21:32:48;25.30;78.60
35565;DHT22;21668;44.784;10.336;2022-07-10T21:35:52;25.20;79.00
35565;DHT22;21668;44.784;10.336;2022-07-10T21:38:56;25.20;79.30
35565;DHT22;21668;44.784;10.336;2022-07-10T21:42:01;25.20;79.40
35565;DHT22;21668;44.784;10.336;2022-07-10T21:45:04;25.20;80.00
35565;DHT22;21668;44.784;10.336;2022-07-10T21:48:09;25.20;79.80
35565;DHT22;21668;44.784;10.336;2022-07-10T21:51:12;25.10;80.40
35565;DHT22;21668;44.784;10.336;2022-07-10T21:54:17;25.10;80.90
35565;DHT22;21668;44.784;10.336;2022-07-10T21:57:21;25.10;80.70
35565;DHT22;21668;44.784;10.336;2022-07-10T22:00:26;24.90;81.10
35565;DHT22;21668;44.784;10.336;2022-07-10T22:03:29;24.90;81.50
35565;DHT22;21668;44.784;10.336;2022-07-10T22:06:33;24.80;81.50
35565;DHT22;21668;44.784;10.336;2022-07-10T22:09:36;24.80;82.00
35565;DHT22;21668;44.784;10.336;2022-07-10T22:12:40;24.80;82.50
35565;DHT22;21668;44.784;10.336;2022-07-10T22:15:44;24.70;82.50
35565;DHT22;21668;44.784;10.336;2022-07-10T22:18:47;24.70;82.80
35565;DHT22;21668;44.784;10.336;2022-07-10T22:21:50;24.70;82.70
35565;DHT22;21668;44.784;10.336;2022-07-10T22:24:54;24.70;83.20
35565;DHT22;21668;44.784;10.336;2022-07-10T22:27:58;24.70;83.30
35565;DHT22;21668;44.784;10.336;2022-07-10T22:31:01;24.60;82.70
35565;DHT22;21668;44.784;10.336;2022-07-10T22:34:20;24.70;83.10
35565;DHT22;21668;44.784;10.336;2022-07-10T22:37:24;24.70;83.60
35565;DHT22;21668;44.784;10.336;2022-07-10T22:40:27;24.70;84.50
35565;DHT22;21668;44.784;10.336;2022-07-10T22:43:31;24.70;85.20
35565;DHT22;21668;44.784;10.336;2022-07-10T22:46:35;24.60;86.30
35565;DHT22;21668;44.784;10.336;2022-07-10T22:49:38;24.50;87.10
35565;DHT22;21668;44.784;10.336;2022-07-10T22:52:42;24.30;87.70
35565;DHT22;21668;44.784;10.336;2022-07-10T22:55:45;24.10;88.40
35565;DHT22;21668;44.784;10.336;2022-07-10T22:58:49;24.10;88.80
35565;DHT22;21668;44.784;10.336;2022-07-10T23:01:53;24.00;89.50
35565;DHT22;21668;44.784;10.336;2022-07-10T23:04:57;23.90;90.00
35565;DHT22;21668;44.784;10.336;2022-07-10T23:08:01;23.90;90.10
35565;DHT22;21668;44.784;10.336;2022-07-10T23:11:04;23.90;90.30
35565;DHT22;21668;44.784;10.336;2022-07-10T23:14:08;23.70;90.40
35565;DHT22;21668;44.784;10.336;2022-07-10T23:17:11;23.70;90.60
35565;DHT22;21668;44.784;10.336;2022-07-10T23:20:15;23.60;90.70
35565;DHT22;21668;44.784;10.336;2022-07-10T23:23:19;23.60;90.80
35565;DHT22;21668;44.784;10.336;2022-07-10T23:26:22;23.50;91.00
35565;DHT22;21668;44.784;10.336;2022-07-10T23:29:26;23.40;91.30
35565;DHT22;21668;44.784;10.336;2022-07-10T23:32:30;23.40;91.40
35565;DHT22;21668;44.784;10.336;2022-07-10T23:35:34;23.40;91.70
35565;DHT22;21668;44.784;10.336;2022-07-10T23:38:37;23.30;91.70
35565;DHT22;21668;44.784;10.336;2022-07-10T23:41:41;23.30;91.90
35565;DHT22;21668;44.784;10.336;2022-07-10T23:44:44;23.20;92.20
35565;DHT22;21668;44.784;10.336;2022-07-10T23:47:48;23.30;92.30
35565;DHT22;21668;44.784;10.336;2022-07-10T23:50:52;23.20;92.40
35565;DHT22;21668;44.784;10.336;2022-07-10T23:53:55;23.10;92.70
35565;DHT22;21668;44.784;10.336;2022-07-10T23:56:59;23.00;93.00
